createdAt,value
2023-04-12T01:45:34.778Z,9.85
2023-04-12T01:51:15.887Z,9.83
2023-04-12T01:56:37.947Z,9.76
2023-04-12T02:01:45.468Z,9.66
2023-04-12T02:06:53.181Z,9.59
2023-04-12T02:48:56.580Z,9.47
2023-04-12T03:58:03.131Z,9.28
2023-04-12T04:21:50.263Z,9.16
2023-04-12T04:26:54.485Z,9.20
2023-04-12T04:32:02.575Z,9.16
2023-04-12T04:37:06.530Z,9.15
2023-04-12T04:42:11.272Z,9.23
2023-04-12T04:47:15.912Z,9.32
2023-04-12T04:52:19.996Z,9.31
2023-04-12T04:57:26.958Z,9.34
2023-04-12T05:02:32.594Z,9.26
2023-04-12T05:07:39.037Z,9.24
2023-04-12T05:18:45.293Z,9.11
2023-04-12T05:23:49.653Z,9.19
2023-04-12T05:28:53.982Z,9.22
2023-04-12T05:34:00.409Z,9.19
2023-04-12T05:39:08.443Z,9.27
2023-04-12T05:44:14.012Z,9.30
2023-04-12T05:49:18.431Z,9.32
2023-04-12T05:54:21.879Z,9.27
2023-04-12T05:59:27.888Z,9.26
2023-04-12T06:04:50.826Z,9.29
2023-04-12T06:09:56.861Z,9.28
2023-04-12T06:15:01.308Z,9.21
2023-04-12T06:20:10.228Z,9.16
2023-04-12T06:25:35.482Z,9.14
2023-04-12T06:30:44.384Z,9.15
2023-04-12T06:35:48.854Z,9.25
2023-04-12T06:43:07.167Z,9.45
2023-04-12T06:48:14.425Z,9.55
2023-04-12T06:58:56.436Z,9.37
2023-04-12T07:04:04.461Z,9.37
2023-04-12T07:14:34.872Z,9.33
2023-04-12T07:19:48.185Z,9.37
2023-04-12T07:25:10.367Z,9.50
2023-04-12T07:30:15.007Z,9.52
2023-04-12T07:35:19.520Z,9.47
2023-04-12T07:43:43.641Z,9.53
2023-04-12T07:48:48.333Z,9.62
2023-04-12T07:53:52.563Z,9.75
2023-04-12T08:43:15.296Z,10.09
2023-04-12T08:48:29.556Z,10.21
2023-04-12T08:53:35.138Z,10.34
2023-04-12T08:58:46.364Z,10.50
2023-04-12T09:04:08.217Z,10.55
2023-04-12T09:09:12.848Z,10.64
2023-04-12T09:15:01.053Z,10.78
2023-04-12T09:20:28.920Z,10.95
2023-04-12T09:25:45.884Z,11.03
2023-04-12T09:30:54.279Z,11.04
2023-04-12T09:36:03.383Z,11.14
2023-04-12T09:41:30.884Z,11.22
2023-04-12T09:46:35.269Z,11.29
2023-04-12T09:51:39.627Z,11.28
2023-04-12T09:56:44.487Z,11.28
2023-04-12T10:01:48.106Z,11.42
2023-04-12T10:06:53.110Z,11.88
2023-04-12T10:11:59.610Z,12.22
2023-04-12T10:17:05.880Z,12.12
2023-04-12T10:22:09.578Z,11.93
2023-04-12T10:27:14.100Z,11.80
2023-04-12T10:32:23.157Z,11.84
2023-04-12T10:38:02.272Z,11.94
2023-04-12T10:43:24.755Z,12.03
2023-04-12T10:48:34.081Z,12.11
2023-04-12T10:53:37.730Z,12.26
2023-04-12T10:58:49.404Z,12.44
2023-04-12T11:04:22.314Z,12.51
2023-04-12T11:09:37.807Z,12.39
2023-04-12T11:42:57.511Z,12.26
2023-04-12T11:48:10.140Z,12.29
2023-04-12T11:53:14.085Z,12.38
2023-04-12T11:58:18.746Z,12.41
2023-04-12T12:03:23.495Z,12.45
2023-04-12T12:08:27.477Z,12.52
2023-04-12T12:13:50.374Z,12.59
2023-04-12T12:18:55.150Z,12.68
2023-04-12T12:23:58.887Z,12.84
2023-04-12T12:29:02.887Z,13.00
2023-04-12T12:34:09.102Z,13.10
2023-04-12T12:39:13.388Z,13.18
2023-04-12T12:44:16.980Z,13.29
2023-04-12T12:49:20.465Z,13.39
2023-04-12T12:54:39.568Z,13.49
2023-04-12T12:59:44.947Z,13.48
2023-04-12T13:04:48.550Z,13.49
2023-04-12T13:09:52.441Z,13.53
2023-04-12T13:15:06.927Z,13.56
2023-04-12T13:20:24.524Z,13.57
2023-04-12T13:25:28.104Z,13.51
2023-04-12T13:30:31.999Z,13.45
2023-04-12T13:35:35.581Z,13.33
2023-04-12T13:43:03.233Z,13.25
2023-04-12T13:48:07.353Z,13.20
2023-04-12T13:53:12.947Z,13.14
2023-04-12T13:58:17.080Z,13.09
2023-04-12T14:03:21.351Z,13.05
2023-04-12T14:08:24.706Z,12.97
2023-04-12T14:13:27.902Z,12.95
2023-04-12T14:18:30.959Z,13.01
2023-04-12T14:23:34.014Z,13.01
2023-04-12T14:28:37.052Z,13.07
2023-04-12T14:33:40.032Z,13.04
2023-04-12T14:38:44.170Z,13.06
2023-04-12T14:44:10.399Z,13.06
2023-04-12T14:49:14.410Z,13.03
2023-04-12T14:54:17.806Z,12.95
2023-04-12T14:59:21.887Z,12.95
2023-04-12T15:04:26.655Z,12.97
2023-04-12T15:09:33.908Z,13.05
2023-04-12T15:14:37.452Z,13.12
2023-04-12T15:19:40.705Z,13.15
2023-04-12T15:24:43.728Z,13.25
2023-04-12T15:29:47.276Z,13.35
2023-04-12T15:34:51.353Z,13.32
2023-04-12T15:39:55.279Z,13.30
2023-04-12T15:44:58.712Z,13.27
2023-04-12T15:50:06.191Z,13.32
2023-04-12T15:55:15.493Z,13.39
2023-04-12T16:00:23.460Z,13.40
2023-04-12T16:05:27.368Z,13.42
2023-04-12T16:10:30.597Z,13.73
2023-04-12T16:15:34.814Z,14.99
2023-04-12T16:20:37.905Z,15.92
2023-04-12T16:25:40.938Z,15.94
2023-04-12T16:30:43.975Z,15.57
2023-04-12T16:35:47.075Z,15.28
2023-04-12T16:40:50.066Z,14.88
2023-04-12T16:45:53.509Z,14.47
2023-04-12T16:50:56.862Z,14.09
2023-04-12T16:56:05.011Z,13.84
2023-04-12T17:01:08.476Z,13.70
2023-04-12T17:06:12.196Z,13.59
2023-04-12T17:11:15.762Z,13.36
2023-04-12T17:16:19.560Z,13.06
2023-04-12T17:21:23.150Z,12.85
2023-04-12T17:26:27.489Z,12.69
2023-04-12T17:31:35.973Z,12.59
2023-04-12T17:36:40.424Z,12.48
2023-04-12T17:41:44.178Z,12.40
2023-04-12T17:46:47.732Z,12.27
2023-04-12T17:51:51.392Z,12.03
2023-04-12T17:56:58.221Z,11.80
2023-04-12T18:02:05.431Z,11.61
2023-04-12T18:07:12.161Z,11.43
2023-04-12T18:12:19.138Z,11.30
2023-04-12T18:17:25.091Z,11.17
2023-04-12T18:22:30.192Z,11.04
2023-04-12T18:27:34.094Z,10.99
2023-04-12T18:32:37.785Z,10.97
2023-04-12T18:37:43.959Z,10.88
2023-04-12T19:42:54.497Z,9.93
2023-04-12T19:48:02.311Z,9.83
2023-04-12T19:53:06.556Z,9.76
2023-04-12T19:58:14.135Z,9.69
2023-04-12T20:03:18.226Z,9.64
2023-04-12T20:08:22.993Z,9.55
2023-04-12T20:13:31.107Z,9.48
2023-04-12T20:18:35.544Z,9.44
2023-04-12T20:23:39.169Z,9.36
2023-04-12T20:28:45.155Z,9.30
2023-04-12T20:33:48.729Z,9.24
2023-04-12T20:38:54.368Z,9.15
2023-04-12T20:43:59.835Z,9.08
2023-04-12T20:49:07.813Z,9.00
2023-04-12T20:54:11.816Z,8.96
2023-04-12T20:59:17.628Z,8.93
2023-04-12T21:04:22.636Z,8.89
2023-04-12T21:09:26.940Z,8.88
2023-04-12T21:14:30.677Z,8.92
2023-04-12T21:19:53.304Z,8.90
2023-04-12T21:24:57.035Z,8.87
2023-04-12T21:30:09.099Z,8.86
2023-04-12T21:35:18.703Z,8.80
2023-04-12T21:43:03.754Z,8.71
2023-04-12T21:48:08.759Z,8.61
2023-04-12T21:53:13.447Z,8.53
2023-04-12T21:58:20.495Z,8.47
2023-04-12T22:03:25.615Z,8.43
2023-04-12T22:08:34.257Z,8.39
2023-04-12T22:13:46.421Z,8.32
2023-04-12T22:18:51.251Z,8.26
2023-04-12T22:24:03.615Z,8.22
2023-04-12T22:29:08.735Z,8.20
2023-04-12T22:34:12.642Z,8.17
2023-04-12T22:42:54.442Z,8.19
2023-04-12T22:48:21.096Z,8.15
2023-04-12T22:59:06.201Z,7.93
2023-04-12T23:09:51.659Z,7.89
2023-04-12T23:15:15.630Z,7.83
2023-04-12T23:20:54.621Z,7.73
2023-04-12T23:26:14.883Z,7.63
2023-04-12T23:31:46.586Z,7.58
2023-04-12T23:43:02.782Z,7.45
2023-04-12T23:48:28.632Z,7.38
2023-04-12T23:53:54.189Z,7.35
2023-04-12T23:59:00.548Z,7.34
